createdAt,value
2022-12-25T00:02:07.369Z,99203.75
2022-12-25T00:04:34.650Z,99200.28
2022-12-25T00:07:01.584Z,99208.53
2022-12-25T00:09:28.854Z,99208.53
2022-12-25T00:11:56.835Z,99220.75
2022-12-25T00:14:24.051Z,99223.56
2022-12-25T00:16:51.062Z,99224.22
2022-12-25T00:19:18.004Z,99218.78
2022-12-25T00:21:44.983Z,99232.81
2022-12-25T00:24:12.027Z,99240.63
2022-12-25T00:26:39.444Z,99243.94
2022-12-25T00:29:06.518Z,99244.22
2022-12-25T00:31:34.795Z,99252.03
2022-12-25T00:34:01.791Z,99247.56
2022-12-25T00:36:28.991Z,99252.69
2022-12-25T00:38:57.188Z,99250.41
2022-12-25T00:41:43.231Z,99247.28
2022-12-25T00:44:12.822Z,99252.88
2022-12-25T00:46:40.773Z,99257.34
2022-12-25T00:49:07.856Z,99263.44
2022-12-25T00:51:34.897Z,99260.50
2022-12-25T00:54:01.931Z,99270.41
2022-12-25T00:56:28.902Z,99269.06
2022-12-25T00:58:56.021Z,99278.69
2022-12-25T01:01:23.066Z,99279.97
2022-12-25T01:03:50.164Z,99274.66
2022-12-25T01:06:17.525Z,99291.22
2022-12-25T01:09:07.425Z,99290.13
2022-12-25T01:11:34.518Z,99294.41
2022-12-25T01:14:01.514Z,99295.78
2022-12-25T01:16:28.988Z,99292.97
2022-12-25T01:18:56.311Z,99303.22
2022-12-25T01:21:23.661Z,99294.28
2022-12-25T01:23:52.582Z,99293.47
2022-12-25T01:26:23.025Z,99304.03
2022-12-25T01:28:50.795Z,99307.00
2022-12-25T01:31:19.666Z,99305.50
2022-12-25T01:33:47.305Z,99309.41
2022-12-25T01:36:19.452Z,99320.94
2022-12-25T01:38:46.746Z,99319.50
2022-12-25T01:41:15.780Z,99331.97
2022-12-25T01:44:24.632Z,99336.66
2022-12-25T01:46:51.719Z,99340.94
2022-12-25T01:49:21.669Z,99343.50
2022-12-25T01:51:57.850Z,99348.09
2022-12-25T01:54:33.691Z,99348.34
2022-12-25T01:57:03.810Z,99350.75
2022-12-25T01:59:31.039Z,99357.09
2022-12-25T02:01:58.527Z,99355.66
2022-12-25T02:04:40.060Z,99353.34
2022-12-25T02:07:25.215Z,99357.50
2022-12-25T02:09:52.602Z,99370.69
2022-12-25T02:12:24.609Z,99359.63
2022-12-25T02:14:54.734Z,99365.41
2022-12-25T02:17:40.806Z,99367.97
2022-12-25T02:20:17.240Z,99365.03
2022-12-25T02:23:05.828Z,99369.50
2022-12-25T02:26:06.633Z,99379.25
2022-12-25T02:28:56.217Z,99383.00
2022-12-25T02:31:39.217Z,99385.53
2022-12-25T02:34:16.055Z,99395.72
2022-12-25T02:37:04.255Z,99399.50
2022-12-25T02:40:05.632Z,99391.44
2022-12-25T02:43:09.974Z,99396.41
2022-12-25T02:45:55.455Z,99398.38
2022-12-25T02:48:43.245Z,99399.66
2022-12-25T02:51:31.177Z,99405.91
2022-12-25T02:54:20.311Z,99404.63
2022-12-25T02:57:06.997Z,99414.91
2022-12-25T02:59:55.045Z,99421.47
2022-12-25T03:02:45.089Z,99432.44
2022-12-25T03:05:34.201Z,99419.38
2022-12-25T03:08:05.896Z,99424.41
2022-12-25T03:10:54.277Z,99432.53
2022-12-25T03:13:24.135Z,99436.72
2022-12-25T03:16:09.601Z,99435.59
2022-12-25T03:18:39.493Z,99440.06
2022-12-25T03:21:25.582Z,99445.78
2022-12-25T03:24:14.887Z,99447.72
2022-12-25T03:26:57.038Z,99445.06
2022-12-25T03:29:49.691Z,99456.63
2022-12-25T03:32:19.765Z,99463.16
2022-12-25T03:35:24.279Z,99466.69
2022-12-25T03:38:47.543Z,99470.44
2022-12-25T03:41:36.276Z,99474.03
2022-12-25T03:44:55.570Z,99479.19
2022-12-25T03:47:37.590Z,99476.97
2022-12-25T03:50:28.242Z,99476.97
2022-12-25T03:53:15.443Z,99481.16
2022-12-25T03:56:02.402Z,99485.75
2022-12-25T03:58:47.992Z,99488.97
2022-12-25T04:01:34.018Z,99483.00
2022-12-25T04:04:19.995Z,99488.81
2022-12-25T04:07:05.674Z,99500.50
2022-12-25T04:09:51.591Z,99503.38
2022-12-25T04:12:37.098Z,99497.28
2022-12-25T04:15:23.049Z,99506.31
2022-12-25T04:18:10.922Z,99508.97
2022-12-25T04:20:56.562Z,99515.50
2022-12-25T04:23:42.160Z,99517.59
2022-12-25T04:26:27.890Z,99531.59
2022-12-25T04:29:13.577Z,99531.34
2022-12-25T04:32:10.205Z,99538.00
2022-12-25T04:34:55.750Z,99529.25
2022-12-25T04:37:27.736Z,99532.72
2022-12-25T04:39:54.825Z,99526.78
2022-12-25T04:42:21.932Z,99534.53
2022-12-25T04:44:49.193Z,99532.59
2022-12-25T04:47:16.171Z,99535.09
2022-12-25T04:49:43.222Z,99538.69
2022-12-25T04:52:10.253Z,99546.59
2022-12-25T04:54:38.723Z,99552.44
2022-12-25T04:57:11.770Z,99554.09
2022-12-25T04:59:38.689Z,99564.66
2022-12-25T05:02:05.789Z,99558.41
2022-12-25T05:04:32.999Z,99553.41
2022-12-25T05:06:59.968Z,99567.84
2022-12-25T05:09:27.297Z,99569.78
2022-12-25T05:12:00.237Z,99576.72
2022-12-25T05:14:27.255Z,99577.28
2022-12-25T05:16:54.454Z,99595.06
2022-12-25T05:19:21.497Z,99607.00
2022-12-25T05:21:48.983Z,99610.47
2022-12-25T05:24:16.251Z,99606.03
2022-12-25T05:26:43.417Z,99604.50
2022-12-25T05:29:11.471Z,99617.53
2022-12-25T05:31:40.034Z,99624.09
2022-12-25T05:34:17.074Z,99620.63
2022-12-25T05:36:44.131Z,99635.59
2022-12-25T05:41:38.363Z,99642.97
2022-12-25T05:44:05.411Z,99636.56
2022-12-25T05:46:58.263Z,99641.44
2022-12-25T05:49:25.532Z,99663.47
2022-12-25T05:51:57.959Z,99663.16
2022-12-25T05:54:26.104Z,99667.06
2022-12-25T05:56:53.693Z,99663.56
2022-12-25T05:59:20.901Z,99659.06
2022-12-25T06:04:31.515Z,99655.41
2022-12-25T06:07:00.518Z,99662.16
2022-12-25T06:09:40.019Z,99660.31
2022-12-25T06:12:11.931Z,99670.34
2022-12-25T06:14:45.132Z,99685.81
2022-12-25T06:19:54.772Z,99693.78
2022-12-25T06:22:21.874Z,99692.34
2022-12-25T06:24:51.236Z,99693.06
2022-12-25T06:27:18.617Z,99696.41
2022-12-25T06:29:45.685Z,99708.47
2022-12-25T06:34:53.765Z,99686.00
2022-12-25T06:37:23.491Z,99710.72
2022-12-25T06:39:51.382Z,99711.13
2022-12-25T06:42:18.471Z,99715.13
2022-12-25T06:44:45.547Z,99715.41
2022-12-25T06:47:17.896Z,99722.66
2022-12-25T06:49:44.925Z,99714.50
2022-12-25T06:52:11.974Z,99719.38
2022-12-25T06:54:38.925Z,99724.19
2022-12-25T06:57:05.954Z,99730.50
2022-12-25T06:59:36.775Z,99725.66
2022-12-25T07:02:03.856Z,99731.38
2022-12-25T07:04:40.128Z,99737.59
2022-12-25T07:07:15.939Z,99727.38
2022-12-25T07:09:46.228Z,99734.44
2022-12-25T07:12:26.849Z,99733.03
2022-12-25T07:14:55.271Z,99735.78
2022-12-25T07:17:22.979Z,99736.22
2022-12-25T07:19:50.252Z,99722.06
2022-12-25T07:22:19.339Z,99733.47
2022-12-25T07:24:46.433Z,99738.22
2022-12-25T07:27:13.550Z,99732.91
2022-12-25T07:29:40.671Z,99747.38
2022-12-25T07:32:08.019Z,99751.88
2022-12-25T07:34:35.051Z,99760.38
2022-12-25T07:37:06.638Z,99763.97
2022-12-25T07:39:35.907Z,99767.25
2022-12-25T07:42:02.913Z,99766.03
2022-12-25T07:44:33.677Z,99762.63
2022-12-25T07:47:06.096Z,99780.81
2022-12-25T07:49:41.489Z,99781.06
2022-12-25T07:54:50.673Z,99803.66
2022-12-25T07:57:17.681Z,99797.66
2022-12-25T07:59:44.899Z,99784.88
2022-12-25T08:02:12.115Z,99791.13
2022-12-25T08:04:41.196Z,99796.38
2022-12-25T08:07:09.671Z,99788.28
2022-12-25T08:09:36.954Z,99791.03
2022-12-25T08:12:04.223Z,99798.44
2022-12-25T08:14:31.278Z,99792.78
2022-12-25T08:16:58.495Z,99803.31
2022-12-25T08:19:26.230Z,99816.69
2022-12-25T08:21:53.305Z,99802.94
2022-12-25T08:24:20.574Z,99823.63
2022-12-25T08:26:47.895Z,99834.91
2022-12-25T08:29:15.162Z,99816.75
2022-12-25T08:31:46.530Z,99817.31
2022-12-25T08:34:14.197Z,99824.53
2022-12-25T08:36:41.834Z,99834.91
2022-12-25T08:39:08.958Z,99839.91
2022-12-25T08:41:36.642Z,99833.22
2022-12-25T08:44:04.631Z,99846.03
2022-12-25T08:46:32.849Z,99839.03
2022-12-25T08:49:00.082Z,99838.44
2022-12-25T08:51:29.740Z,99845.97
2022-12-25T08:53:59.740Z,99828.88
2022-12-25T08:56:28.614Z,99845.59
2022-12-25T08:58:55.567Z,99841.53
2022-12-25T09:01:22.725Z,99858.66
2022-12-25T09:03:49.907Z,99858.50
2022-12-25T09:06:17.978Z,99858.44
2022-12-25T09:08:49.002Z,99861.50
2022-12-25T09:11:19.992Z,99863.69
2022-12-25T09:13:48.328Z,99867.88
2022-12-25T09:16:18.387Z,99878.97
2022-12-25T09:18:48.027Z,99873.81
2022-12-25T09:21:16.265Z,99870.25
2022-12-25T09:23:43.490Z,99867.84
2022-12-25T09:26:16.826Z,99862.19
2022-12-25T09:28:51.432Z,99890.19
2022-12-25T09:31:20.182Z,99874.47
2022-12-25T09:33:47.340Z,99883.25
2022-12-25T09:36:14.648Z,99881.94
2022-12-25T09:38:41.687Z,99879.50
2022-12-25T09:41:28.404Z,99883.56
2022-12-25T09:44:03.299Z,99889.34
2022-12-25T09:46:41.674Z,99890.44
2022-12-25T09:49:30.912Z,99885.03
2022-12-25T09:52:03.730Z,99889.78
2022-12-25T09:54:49.361Z,99879.00
2022-12-25T09:57:58.846Z,99902.19
2022-12-25T10:00:43.355Z,99900.66
2022-12-25T10:03:48.993Z,99906.25
2022-12-25T10:06:57.585Z,99913.56
2022-12-25T10:09:47.317Z,99904.63
2022-12-25T10:12:41.710Z,99908.69
2022-12-25T10:15:49.982Z,99916.28
2022-12-25T10:18:44.928Z,99925.72
2022-12-25T10:21:49.201Z,99923.81
2022-12-25T10:24:35.920Z,99920.00
2022-12-25T10:27:17.077Z,99928.63
2022-12-25T10:32:58.264Z,99916.53
2022-12-25T10:35:38.018Z,99927.09
2022-12-25T10:38:16.132Z,99926.91
2022-12-25T10:40:56.138Z,99929.53
2022-12-25T10:46:36.856Z,99920.25
2022-12-25T10:49:13.183Z,99916.00
2022-12-25T10:54:32.157Z,99936.00
2022-12-25T10:57:17.947Z,99918.78
2022-12-25T10:59:47.358Z,99927.66
2022-12-25T11:02:28.556Z,99921.66
2022-12-25T11:05:11.480Z,99933.75
2022-12-25T11:07:51.014Z,99938.78
2022-12-25T11:10:33.469Z,99953.13
2022-12-25T11:21:43.089Z,99949.72
2022-12-25T11:24:19.600Z,99957.66
2022-12-25T11:26:59.451Z,99946.53
2022-12-25T11:29:44.280Z,99948.78
2022-12-25T11:35:32.339Z,99929.88
2022-12-25T11:37:59.584Z,99945.81
2022-12-25T11:40:36.627Z,99944.31
2022-12-25T11:43:30.174Z,99962.72
2022-12-25T11:46:11.878Z,99957.94
2022-12-25T11:54:52.494Z,99950.41
2022-12-25T11:57:20.280Z,99976.34
2022-12-25T11:59:58.999Z,99964.25
2022-12-25T12:02:35.083Z,99979.44
2022-12-25T12:05:21.463Z,99979.81
2022-12-25T12:08:01.224Z,99997.34
2022-12-25T12:11:00.740Z,100003.44
2022-12-25T12:13:57.189Z,100008.81
2022-12-25T12:16:28.736Z,100006.78
2022-12-25T12:18:57.248Z,100013.72
2022-12-25T12:21:25.292Z,100013.00
2022-12-25T12:24:05.425Z,100005.59
2022-12-25T12:27:12.707Z,100007.63
2022-12-25T12:29:50.612Z,100002.03
2022-12-25T12:32:33.323Z,100012.19
2022-12-25T12:35:40.229Z,100011.94
2022-12-25T12:39:52.328Z,100020.94
2022-12-25T12:42:31.127Z,100030.03
2022-12-25T12:45:33.784Z,100026.94
2022-12-25T12:48:30.583Z,100029.78
2022-12-25T12:51:08.922Z,100013.59
2022-12-25T12:53:48.569Z,100025.47
2022-12-25T12:56:18.367Z,100020.56
2022-12-25T12:58:51.187Z,100032.06
2022-12-25T13:04:39.536Z,100031.94
2022-12-25T13:10:25.253Z,100029.56
2022-12-25T13:13:00.206Z,100042.00
2022-12-25T13:15:31.638Z,100045.72
2022-12-25T13:18:04.033Z,100053.03
2022-12-25T13:20:42.331Z,100029.78
2022-12-25T13:23:27.172Z,100039.47
2022-12-25T13:25:59.741Z,100030.75
2022-12-25T13:28:35.097Z,100053.50
2022-12-25T13:32:10.389Z,100052.88
2022-12-25T13:35:07.865Z,100057.94
2022-12-25T13:37:35.991Z,100045.84
2022-12-25T13:40:27.918Z,100051.56
2022-12-25T13:43:04.123Z,100065.47
2022-12-25T13:45:34.510Z,100055.28
2022-12-25T13:48:15.263Z,100053.50
2022-12-25T13:50:48.459Z,100065.44
2022-12-25T13:53:17.288Z,100064.03
2022-12-25T13:55:52.780Z,100076.50
2022-12-25T13:58:27.822Z,100086.44
2022-12-25T14:00:57.799Z,100074.34
2022-12-25T14:03:35.303Z,100090.63
2022-12-25T14:06:05.217Z,100083.56
2022-12-25T14:08:34.410Z,100072.81
2022-12-25T14:11:06.408Z,100070.63
2022-12-25T14:13:37.109Z,100071.25
2022-12-25T14:16:05.825Z,100083.56
2022-12-25T14:18:37.979Z,100079.00
2022-12-25T14:21:08.253Z,100093.63
2022-12-25T14:23:44.080Z,100089.44
2022-12-25T14:26:19.745Z,100088.22
2022-12-25T14:28:49.202Z,100093.63
2022-12-25T14:31:21.138Z,100093.50
2022-12-25T14:33:48.531Z,100096.63
2022-12-25T14:36:21.520Z,100105.97
2022-12-25T14:38:58.811Z,100113.25
2022-12-25T14:41:39.542Z,100117.94
2022-12-25T14:44:31.340Z,100108.94
2022-12-25T14:47:18.277Z,100105.38
2022-12-25T14:49:46.130Z,100109.91
2022-12-25T14:55:29.885Z,100117.47
2022-12-25T14:58:01.776Z,100108.38
2022-12-25T15:00:39.097Z,100110.84
2022-12-25T15:03:24.131Z,100108.59
2022-12-25T15:06:06.973Z,100122.38
2022-12-25T15:08:35.489Z,100113.88
2022-12-25T15:11:03.591Z,100113.63
2022-12-25T15:13:31.933Z,100117.47
2022-12-25T15:16:23.163Z,100115.22
2022-12-25T15:18:50.621Z,100113.75
2022-12-25T15:21:22.901Z,100116.75
2022-12-25T15:23:50.215Z,100118.06
2022-12-25T15:26:17.516Z,100117.56
2022-12-25T15:28:45.072Z,100116.59
2022-12-25T15:31:32.207Z,100105.59
2022-12-25T15:34:05.173Z,100112.75
2022-12-25T15:36:32.978Z,100121.47
2022-12-25T15:39:01.119Z,100127.34
2022-12-25T15:41:49.650Z,100117.72
2022-12-25T15:44:17.212Z,100121.91
2022-12-25T15:46:46.009Z,100132.22
2022-12-25T15:49:14.642Z,100116.75
2022-12-25T15:51:45.492Z,100124.63
2022-12-25T15:54:12.667Z,100124.91
2022-12-25T15:56:45.500Z,100138.19
2022-12-25T15:59:16.100Z,100148.28
2022-12-25T16:01:50.381Z,100139.91
2022-12-25T16:04:18.074Z,100159.06
2022-12-25T16:06:45.157Z,100157.91
2022-12-25T16:09:13.819Z,100142.88
2022-12-25T16:11:41.444Z,100152.63
2022-12-25T16:14:13.706Z,100160.63
2022-12-25T16:16:42.109Z,100151.41
2022-12-25T16:19:09.154Z,100156.69
2022-12-25T16:21:44.148Z,100154.19
2022-12-25T16:24:11.623Z,100164.00
2022-12-25T16:26:44.196Z,100151.06
2022-12-25T16:29:11.520Z,100168.81
2022-12-25T16:31:39.228Z,100171.56
2022-12-25T16:34:08.373Z,100166.28
2022-12-25T16:36:36.109Z,100167.75
2022-12-25T16:39:04.421Z,100176.34
2022-12-25T16:41:31.488Z,100179.13
2022-12-25T16:43:58.694Z,100171.56
2022-12-25T16:46:26.384Z,100184.72
2022-12-25T16:48:53.497Z,100184.13
2022-12-25T16:51:21.776Z,100188.34
2022-12-25T16:53:49.020Z,100181.75
2022-12-25T16:56:22.248Z,100185.59
2022-12-25T16:58:58.722Z,100164.38
2022-12-25T17:01:26.349Z,100190.72
2022-12-25T17:03:54.268Z,100175.50
2022-12-25T17:06:29.021Z,100186.44
2022-12-25T17:09:00.706Z,100194.81
2022-12-25T17:11:30.227Z,100179.47
2022-12-25T17:14:00.513Z,100191.69
2022-12-25T17:16:29.409Z,100186.66
2022-12-25T17:19:01.861Z,100196.72
2022-12-25T17:21:29.425Z,100195.53
2022-12-25T17:24:02.243Z,100200.53
2022-12-25T17:26:32.089Z,100209.06
2022-12-25T17:28:59.452Z,100208.94
2022-12-25T17:31:26.844Z,100211.69
2022-12-25T17:33:54.045Z,100207.00
2022-12-25T17:36:22.472Z,100215.06
2022-12-25T17:38:55.786Z,100220.56
2022-12-25T17:44:05.852Z,100203.06
2022-12-25T17:46:35.204Z,100222.38
2022-12-25T17:49:02.725Z,100218.53
2022-12-25T17:51:41.302Z,100214.94
2022-12-25T17:54:09.585Z,100220.31
2022-12-25T17:56:37.935Z,100215.78
2022-12-25T17:59:08.486Z,100210.25
2022-12-25T18:01:38.684Z,100239.59
2022-12-25T18:04:09.756Z,100229.28
2022-12-25T18:06:37.215Z,100225.44
2022-12-25T18:09:07.676Z,100237.66
2022-12-25T18:11:41.184Z,100218.72
2022-12-25T18:16:53.462Z,100232.38
2022-12-25T18:19:20.641Z,100212.47
2022-12-25T18:21:50.683Z,100218.13
2022-12-25T18:24:17.703Z,100225.06
2022-12-25T18:26:46.044Z,100225.88
2022-12-25T18:29:17.777Z,100212.72
2022-12-25T18:31:48.134Z,100231.72
2022-12-25T18:34:16.590Z,100246.69
2022-12-25T18:36:47.056Z,100255.09
2022-12-25T18:39:14.560Z,100242.84
2022-12-25T18:42:01.778Z,100230.97
2022-12-25T18:44:39.622Z,100251.47
2022-12-25T18:47:12.060Z,100230.47
2022-12-25T18:52:49.713Z,100277.78
2022-12-25T18:55:20.846Z,100253.84
2022-12-25T18:57:51.499Z,100271.97
2022-12-25T19:00:18.945Z,100252.66
2022-12-25T19:02:48.138Z,100267.25
2022-12-25T19:05:17.973Z,100255.91
2022-12-25T19:07:45.220Z,100265.03
2022-12-25T19:10:12.615Z,100266.47
2022-12-25T19:12:42.431Z,100270.28
2022-12-25T19:15:09.857Z,100283.31
2022-12-25T19:17:37.024Z,100274.22
2022-12-25T19:20:06.150Z,100279.88
2022-12-25T19:22:33.693Z,100283.47
2022-12-25T19:25:01.112Z,100260.44
2022-12-25T19:27:30.443Z,100284.91
2022-12-25T19:29:58.904Z,100268.91
2022-12-25T19:32:27.274Z,100269.97
2022-12-25T19:34:55.008Z,100296.84
2022-12-25T19:37:22.678Z,100266.84
2022-12-25T19:39:58.697Z,100292.03
2022-12-25T19:42:26.491Z,100295.16
2022-12-25T19:44:56.832Z,100273.84
2022-12-25T19:47:30.094Z,100303.31
2022-12-25T19:50:02.620Z,100298.19
2022-12-25T19:52:31.066Z,100286.69
2022-12-25T19:54:58.239Z,100289.81
2022-12-25T19:57:25.447Z,100304.94
2022-12-25T19:59:52.702Z,100295.09
2022-12-25T20:02:20.077Z,100310.13
2022-12-25T20:04:47.421Z,100297.28
2022-12-25T20:07:17.580Z,100313.44
2022-12-25T20:09:46.960Z,100299.06
2022-12-25T20:12:16.550Z,100311.56
2022-12-25T20:14:44.384Z,100318.38
2022-12-25T20:17:16.133Z,100308.31
2022-12-25T20:19:43.615Z,100295.72
2022-12-25T20:22:11.463Z,100310.78
2022-12-25T20:24:42.090Z,100314.50
2022-12-25T20:27:12.483Z,100321.59
2022-12-25T20:29:39.740Z,100306.25
2022-12-25T20:32:06.808Z,100300.84
2022-12-25T20:34:33.934Z,100298.56
2022-12-25T20:37:01.743Z,100316.41
2022-12-25T20:42:14.851Z,100304.91
2022-12-25T20:44:44.373Z,100315.44
2022-12-25T20:47:37.535Z,100317.50
2022-12-25T20:50:05.123Z,100310.38
2022-12-25T20:52:32.138Z,100320.19
2022-12-25T20:54:59.199Z,100322.97
2022-12-25T20:57:26.250Z,100323.78
2022-12-25T20:59:54.649Z,100331.59
2022-12-25T21:02:34.192Z,100324.97
2022-12-25T21:05:04.550Z,100328.56
2022-12-25T21:07:31.933Z,100329.38
2022-12-25T21:09:59.516Z,100324.75
2022-12-25T21:12:26.437Z,100337.69
2022-12-25T21:14:53.470Z,100343.28
2022-12-25T21:17:20.576Z,100335.38
2022-12-25T21:19:47.653Z,100333.81
2022-12-25T21:22:14.739Z,100334.78
2022-12-25T21:24:42.803Z,100341.50
2022-12-25T21:27:10.229Z,100333.81
2022-12-25T21:29:37.430Z,100334.56
2022-12-25T21:32:23.381Z,100323.03
2022-12-25T21:34:50.633Z,100338.13
2022-12-25T21:37:17.707Z,100330.78
2022-12-25T21:39:44.937Z,100336.06
2022-12-25T21:42:12.275Z,100339.75
2022-12-25T21:44:39.277Z,100334.09
2022-12-25T21:47:06.376Z,100348.06
2022-12-25T21:49:51.999Z,100331.53
2022-12-25T21:52:18.995Z,100335.50
2022-12-25T21:54:46.045Z,100334.16
2022-12-25T21:57:13.105Z,100342.88
2022-12-25T21:59:40.071Z,100347.94
2022-12-25T22:02:11.851Z,100345.41
2022-12-25T22:04:39.428Z,100334.09
2022-12-25T22:07:18.456Z,100335.59
2022-12-25T22:09:50.295Z,100353.81
2022-12-25T22:12:39.109Z,100352.34
2022-12-25T22:15:08.164Z,100346.34
2022-12-25T22:18:01.743Z,100352.25
2022-12-25T22:20:37.035Z,100349.50
2022-12-25T22:23:04.775Z,100344.78
2022-12-25T22:25:31.808Z,100348.25
2022-12-25T22:27:59.727Z,100342.97
2022-12-25T22:30:28.869Z,100347.00
2022-12-25T22:32:56.548Z,100352.25
2022-12-25T22:35:23.742Z,100336.66
2022-12-25T22:37:51.383Z,100348.75
2022-12-25T22:40:19.733Z,100350.97
2022-12-25T22:42:47.118Z,100347.13
2022-12-25T22:45:14.885Z,100347.88
2022-12-25T22:47:42.108Z,100352.63
2022-12-25T22:50:10.727Z,100360.53
2022-12-25T22:52:38.386Z,100358.41
2022-12-25T22:55:07.835Z,100359.78
2022-12-25T22:57:38.429Z,100363.16
2022-12-25T23:00:09.012Z,100360.66
2022-12-25T23:02:36.531Z,100359.69
2022-12-25T23:05:04.308Z,100370.84
2022-12-25T23:07:31.483Z,100379.38
2022-12-25T23:09:58.774Z,100376.50
2022-12-25T23:12:45.913Z,100378.31
2022-12-25T23:15:16.001Z,100380.31
2022-12-25T23:18:01.422Z,100378.03
2022-12-25T23:20:47.035Z,100381.16
2022-12-25T23:23:35.563Z,100369.44
2022-12-25T23:26:09.668Z,100370.78
2022-12-25T23:28:56.738Z,100374.38
2022-12-25T23:31:26.959Z,100382.88
2022-12-25T23:33:54.016Z,100383.00
2022-12-25T23:36:21.187Z,100380.63
2022-12-25T23:38:48.231Z,100388.38
2022-12-25T23:41:15.197Z,100380.09
2022-12-25T23:43:42.230Z,100384.50
2022-12-25T23:46:09.530Z,100390.91
2022-12-25T23:48:36.516Z,100394.47
2022-12-25T23:51:07.515Z,100397.13
2022-12-25T23:53:35.589Z,100391.34
2022-12-25T23:56:03.058Z,100406.81
2022-12-25T23:58:30.259Z,100399.13
